Flight Track Log - Related Links

Times and Time Zones

All times are in EDT time to prevent confusion due to time zone crossing. See the RAX1022 flight status page for this flight to view local times or setup timezone preferences in your user account.

Time Position Orientation Groundspeed Altitude Reporting Facility
EDT Latitude Longitude Course Direction KTS MPH feet Rate Location/Type
Thu 09:23:42 PM 42.9333 -78.7167 114° Southeast 113 130 1,300  Level Buffalo TRACON
Thu 09:24:42 PM 42.9167 -78.6667 114° Southeast 141 162 2,700 1,421 Climbing Buffalo TRACON
Thu 09:25:36 PM 42.9167 -78.6167 90° East 157 181 4,000 1,474 Climbing Buffalo TRACON
Thu 09:26:36 PM 42.9167 -78.5667 90° East 153 176 5,500 1,423 Climbing Buffalo TRACON
Thu 09:27:13 PM 42.9153 -78.5336 93° East 151 174 6,300 1,309 Climbing Cleveland Center
Thu 09:28:26 PM 42.9056 -78.4631 101° East 153 176 7,900 1,209 Climbing Cleveland Center
Thu 09:29:27 PM 42.8961 -78.4067 103° East 157 181 9,000 545 Climbing Cleveland Center
Thu 09:30:27 PM 42.8822 -78.3336 105° East 207 238 9,000  Level Cleveland Center
Thu 09:31:34 PM 42.8703 -78.2489 101° East 209 241 9,000  Level Cleveland Center
Thu 09:32:34 PM 42.8581 -78.1700 102° East 213 245 9,000  Level Cleveland Center
Thu 09:33:35 PM 42.8481 -78.0939 100° East 213 245 9,000  Level Cleveland Center
Thu 09:34:36 PM 42.8381 -78.0094 99° East 203 234 9,000  Level Cleveland Center
Thu 09:35:36 PM 42.8281 -77.9389 101° East 198 228 9,000  Level Cleveland Center
Thu 09:36:31 PM 42.8158 -77.8658 103° East 201 231 9,000  Level Cleveland Center
Thu 09:37:25 PM 42.8103 -77.8039 97° East 198 228 9,000  Level Cleveland Center
Thu 09:38:26 PM 42.7981 -77.7253 102° East 200 230 9,000  Level Cleveland Center
Thu 09:39:27 PM 42.7878 -77.6522 101° East 200 230 9,000  Level Cleveland Center
Thu 09:40:21 PM 42.7758 -77.5875 104° East 197 227 9,000  Level Cleveland Center
Thu 09:41:22 PM 42.7633 -77.5119 103° East 204 235 9,000 -29 Level Cleveland Center
Thu 09:43:51 PM 42.7417 -77.3306 99° East 202 232 8,900 -29 Descending New York Center
Thu 09:44:52 PM 42.7311 -77.2561 101° East 202 232 8,900  Level New York Center
Thu 09:45:53 PM 42.7206 -77.1817 101° East 202 232 8,900  Level New York Center
Thu 09:46:51 PM 42.7078 -77.1069 103° East 202 232 8,900  Level New York Center
Thu 09:47:53 PM 42.6953 -77.0325 103° East 202 232 8,900  Level New York Center
Thu 09:48:51 PM 42.6844 -76.9608 102° East 202 232 8,900  Level New York Center
Thu 09:49:51 PM 42.6736 -76.8864 101° East 207 238 8,900 52 Level New York Center
Thu 09:50:47 PM 42.6642 -76.8172 100° East 197 227 9,000 70 Climbing Boston Center
Thu 09:51:17 PM 42.6575 -76.7772 103° East 196 226 9,000  Level Boston Center
Thu 09:52:18 PM 42.6436 -76.7028 104° East 195 224 9,000  Level Boston Center
Thu 09:53:24 PM 42.6319 -76.6231 101° East 197 227 9,000  Level Boston Center
Thu 09:54:25 PM 42.6178 -76.5486 104° East 196 226 9,000  Level Boston Center
Thu 09:58:28 PM 42.5736 -76.2664 102° East 205 236 9,000  Level Boston Center
Thu 10:04:28 PM 42.4986 -75.8028 101° East 205 236 9,000  Level Boston Center
Thu 10:06:00 PM 42.4900 -75.6967 96° East  Level FlightAware Approximate
Thu 10:13:00 PM 42.4497 -75.2129 96° East  Level FlightAware Approximate
Thu 10:14:00 PM 42.4437 -75.1438 97° East  Level FlightAware Approximate
Thu 10:14:28 PM 42.4469 -75.0711 97° East 194 223 9,000  Level Boston Center
Thu 10:15:00 PM 42.4378 -75.0748 97° East  Level FlightAware Approximate
Thu 10:16:00 PM 42.4263 -74.9683 105° East  Level Estimated
Thu 10:16:00 PM 42.4318 -75.0057 97° East  Level FlightAware Approximate
Thu 10:17:00 PM 42.4257 -74.9367 97° East  Level FlightAware Approximate
Thu 10:17:28 PM 42.4289 -74.8508 105° East 194 223 9,000  Level Boston Center
Thu 10:18:00 PM 42.4196 -74.8677 97° East  Level FlightAware Approximate
Thu 10:19:00 PM 42.4135 -74.7987 97° East  Level FlightAware Approximate
Thu 10:19:16 PM 42.4172 -74.7181 97° East 197 227 9,000  Level Boston Center
Thu 10:20:23 PM 42.4064 -74.6361 100° East 201 231 9,000  Level Boston Center
Thu 10:21:24 PM 42.4058 -74.5544 91° East 207 238 9,000  Level Boston Center
Thu 10:23:19 PM 42.3958 -74.4136 95° East 199 229 9,000  Level Boston Center
Thu 10:24:13 PM 42.3886 -74.3489 99° East 200 230 9,000  Level Boston Center
Thu 10:25:14 PM 42.3794 -74.2697 99° East 199 229 9,000  Level Boston Center
Thu 10:26:15 PM 42.3744 -74.1967 95° East 198 228 9,000  Level Boston Center
Thu 10:27:28 PM 42.3653 -74.1064 98° East 198 228 9,000  Level Boston Center
Thu 10:28:16 PM 42.3619 -74.0500 95° East 200 230 9,000  Level Boston Center
Thu 10:29:28 PM 42.3528 -73.9628 98° East 198 228 9,000  Level Boston Center
Thu 10:31:28 PM 42.3419 -73.8136 96° East 198 228 9,000  Level Boston Center
Thu 10:32:19 PM 42.3344 -73.7433 98° East 202 232 9,000  Level Boston Center
Thu 10:33:25 PM 42.3292 -73.6644 95° East 202 232 9,000  Level Boston Center
Thu 10:35:16 PM 42.3139 -73.5239 98° East 205 236 9,000  Level Boston Center
Thu 10:36:04 PM 42.3061 -73.4592 99° East 204 235 9,000  Level Boston Center
Thu 10:37:05 PM 42.3006 -73.3833 96° East 201 231 9,000  Level Boston Center
Thu 10:38:05 PM 42.2950 -73.3131 96° East 198 228 9,000  Level Boston Center
Thu 10:39:06 PM 42.2872 -73.2372 98° East 198 228 9,000  Level Boston Center
Thu 10:40:07 PM 42.2814 -73.1642 96° East 198 228 9,000 -298 Level Boston Center
Thu 10:41:07 PM 42.2694 -73.0911 102° East 203 234 8,400 -645 Descending Boston Center
Thu 10:42:08 PM 42.2553 -73.0122 104° East 212 244 7,700 -694 Descending Boston Center
Thu 10:43:08 PM 42.2408 -72.9336 104° East 211 243 7,000 -744 Descending Boston Center
Thu 10:44:09 PM 42.2247 -72.8494 104° East 214 246 6,200 -750 Descending Boston Center
Thu 10:45:16 PM 42.2103 -72.7653 103° East 217 250 5,400 -567 Descending Boston Center
Thu 10:46:16 PM 42.2042 -72.6839 96° East 204 235 5,000 -378 Descending Boston Center
Thu 10:47:23 PM 42.2064 -72.6028 88° East 201 231 4,600 -330 Descending Boston Center
Thu 10:49:00 PM 42.1216 -72.6279 192° South  Level FlightAware Approximate
Thu 10:55:22 PM 42.0086 -72.5939 180° South 122 140 2,000  Level Boston Center
Thu 10:56:00 PM 41.9333 -72.6833 180° South  Level FlightAware Approximate
Thu 10:56:29 PM 41.9792 -72.6328 224° Southwest 127 146 1,200  Level Boston Center
Thu 10:57:00 PM 41.9392 -72.6834 180° South  Level Estimated
Thu 10:58:00 PM 41.9333 -72.6833 180° South  Level FlightAware Approximate
Thu 10:59:00 PM 41.9392 -72.6834 180° South  Level Estimated
Thu 11:00:00 PM 41.9333 -72.6833 180° South  Level FlightAware Approximate

Login

Don't have an account? Register now (free) for customized features, flight alerts, and more!